createdAt,value
2019-01-16T00:00:13.362Z,3.83
2019-01-16T00:05:53.590Z,3.30
2019-01-16T00:08:41.837Z,3.77
2019-01-16T00:11:32.696Z,4.63
2019-01-16T00:14:20.670Z,4.70
2019-01-16T00:17:09.452Z,4.77
2019-01-16T00:19:57.545Z,3.83
2019-01-16T00:22:46.094Z,6.80
2019-01-16T00:25:34.061Z,5.23
2019-01-16T00:28:22.144Z,9.60
2019-01-16T00:31:10.133Z,4.53
2019-01-16T00:33:58.100Z,3.07
2019-01-16T00:36:46.162Z,3.33
2019-01-16T00:39:34.945Z,6.13
2019-01-16T00:42:22.968Z,3.37
2019-01-16T00:45:10.850Z,5.40
2019-01-16T00:47:58.935Z,4.33
2019-01-16T00:50:48.253Z,6.53
2019-01-16T00:53:23.446Z,3.67
2019-01-16T00:56:11.445Z,6.00
2019-01-16T00:59:00.382Z,4.63
2019-01-16T01:01:52.264Z,3.50
2019-01-16T01:04:41.027Z,5.13
2019-01-16T01:07:29.000Z,5.97
2019-01-16T01:10:20.742Z,4.50
2019-01-16T01:13:00.903Z,4.47
2019-01-16T01:15:38.191Z,4.27
2019-01-16T01:18:32.144Z,3.17
2019-01-16T01:21:16.906Z,3.63
2019-01-16T01:24:05.703Z,4.60
2019-01-16T01:26:53.694Z,2.90
2019-01-16T01:29:41.686Z,3.83
2019-01-16T01:32:29.709Z,3.50
2019-01-16T01:35:17.677Z,4.60
2019-01-16T01:38:05.871Z,5.07
2019-01-16T01:40:53.855Z,6.27
2019-01-16T01:43:41.824Z,3.20
2019-01-16T01:46:29.814Z,7.73
2019-01-16T01:49:17.792Z,3.20
2019-01-16T01:52:05.773Z,4.00
2019-01-16T01:54:53.905Z,5.07
2019-01-16T01:57:42.691Z,4.50
2019-01-16T02:00:30.960Z,3.33
2019-01-16T02:03:19.760Z,4.03
2019-01-16T02:06:07.740Z,3.97
2019-01-16T02:08:55.708Z,5.23
2019-01-16T02:11:59.020Z,3.83
2019-01-16T02:14:47.785Z,4.17
2019-01-16T02:17:35.816Z,3.70
2019-01-16T02:23:27.599Z,2.77
2019-01-16T02:26:16.366Z,3.57
2019-01-16T02:29:04.343Z,2.33
2019-01-16T02:31:52.328Z,2.97
2019-01-16T02:34:40.317Z,3.37
2019-01-16T02:37:28.289Z,2.93
2019-01-16T02:40:14.971Z,3.83
2019-01-16T02:43:03.749Z,3.53
2019-01-16T02:45:51.640Z,7.17
2019-01-16T02:48:39.621Z,5.17
2019-01-16T02:51:27.607Z,5.47
2019-01-16T02:54:15.591Z,5.33
2019-01-16T02:57:03.550Z,4.60
2019-01-16T02:59:51.585Z,4.17
2019-01-16T03:02:40.355Z,6.00
2019-01-16T03:05:28.493Z,3.10
2019-01-16T03:08:17.270Z,3.20
2019-01-16T03:11:05.241Z,4.00
2019-01-16T03:13:53.215Z,4.07
2019-01-16T03:16:41.242Z,5.23
2019-01-16T03:19:30.010Z,5.50
2019-01-16T03:22:17.983Z,8.00
2019-01-16T03:25:05.955Z,6.23
2019-01-16T03:27:54.013Z,7.90
2019-01-16T03:30:42.305Z,8.57
2019-01-16T03:33:30.379Z,7.40
2019-01-16T03:36:19.150Z,4.87
2019-01-16T03:39:07.273Z,6.43
2019-01-16T03:41:48.402Z,7.83
2019-01-16T03:44:37.899Z,5.53
2019-01-16T03:47:25.885Z,4.67
2019-01-16T03:50:13.963Z,14.90
2019-01-16T03:53:01.932Z,7.30
2019-01-16T03:55:50.019Z,5.10
2019-01-16T03:58:39.436Z,2.87
2019-01-16T04:01:27.369Z,6.03
2019-01-16T04:04:15.475Z,3.23
2019-01-16T04:07:03.439Z,4.10
2019-01-16T04:09:51.407Z,5.93
2019-01-16T04:12:39.391Z,4.53
2019-01-16T04:15:27.571Z,6.50
2019-01-16T04:18:15.561Z,7.47
2019-01-16T04:21:00.355Z,10.83
2019-01-16T04:23:48.327Z,10.53
2019-01-16T04:26:36.420Z,16.27
2019-01-16T04:29:28.109Z,12.27
2019-01-16T04:32:16.096Z,11.67
2019-01-16T04:35:04.061Z,7.47
2019-01-16T04:37:52.090Z,9.43
2019-01-16T04:40:40.862Z,8.87
2019-01-16T04:43:28.849Z,7.87
2019-01-16T04:46:16.868Z,8.53
2019-01-16T04:49:04.959Z,7.70
2019-01-16T04:51:52.956Z,7.97
2019-01-16T04:54:40.929Z,10.17
2019-01-16T04:57:28.907Z,12.50
2019-01-16T05:00:16.946Z,11.37
2019-01-16T05:03:05.785Z,11.60
2019-01-16T05:05:54.564Z,10.43
2019-01-16T05:08:42.429Z,9.90
2019-01-16T05:11:30.510Z,10.27
2019-01-16T05:14:18.390Z,13.63
2019-01-16T05:17:06.486Z,13.07
2019-01-16T05:19:54.503Z,12.37
2019-01-16T05:22:42.589Z,27.20
2019-01-16T05:25:30.600Z,29.47
2019-01-16T05:28:18.381Z,24.60
2019-01-16T05:31:07.223Z,31.50
2019-01-16T05:33:56.090Z,37.27
2019-01-16T05:36:44.873Z,29.47
2019-01-16T05:39:26.862Z,34.33
2019-01-16T05:42:15.644Z,27.97
2019-01-16T05:44:56.987Z,29.73
2019-01-16T05:47:45.780Z,39.43
2019-01-16T05:50:36.232Z,34.93
2019-01-16T05:53:25.005Z,32.87
2019-01-16T05:56:12.880Z,36.23
2019-01-16T05:59:00.916Z,40.27
2019-01-16T06:01:49.739Z,39.37
2019-01-16T06:04:38.526Z,33.43
2019-01-16T06:07:26.504Z,48.67
2019-01-16T06:10:15.280Z,44.90
2019-01-16T06:12:55.746Z,42.77
2019-01-16T06:15:33.950Z,45.17
2019-01-16T06:18:22.749Z,65.90
2019-01-16T06:21:10.725Z,60.97
2019-01-16T06:23:58.710Z,114.33
2019-01-16T06:26:46.687Z,138.73
2019-01-16T06:29:34.671Z,126.43
2019-01-16T06:32:22.861Z,92.37
2019-01-16T06:35:10.846Z,80.53
2019-01-16T06:37:58.842Z,78.23
2019-01-16T06:40:46.843Z,58.20
2019-01-16T06:43:34.723Z,55.20
2019-01-16T06:46:22.898Z,59.40
2019-01-16T06:49:03.544Z,49.13
2019-01-16T06:51:52.381Z,71.30
2019-01-16T06:54:41.171Z,42.80
2019-01-16T06:57:29.198Z,55.37
2019-01-16T07:00:17.066Z,36.40
2019-01-16T07:03:05.162Z,26.27
2019-01-16T07:05:52.612Z,23.93
2019-01-16T07:08:32.545Z,23.17
2019-01-16T07:11:21.339Z,19.03
2019-01-16T07:14:09.319Z,19.73
2019-01-16T07:16:57.200Z,20.97
2019-01-16T07:19:34.074Z,19.37
2019-01-16T07:22:22.052Z,20.47
2019-01-16T07:25:10.150Z,21.27
2019-01-16T07:27:58.172Z,27.53
2019-01-16T07:30:47.060Z,25.37
2019-01-16T07:33:35.025Z,26.60
2019-01-16T07:36:23.183Z,22.77
2019-01-16T07:39:11.959Z,22.47
2019-01-16T07:41:59.843Z,22.80
2019-01-16T07:44:47.882Z,17.80
2019-01-16T07:47:27.986Z,23.97
2019-01-16T07:50:17.404Z,21.10
2019-01-16T07:53:06.451Z,22.77
2019-01-16T07:55:54.436Z,23.30
2019-01-16T07:58:42.462Z,24.83
2019-01-16T08:01:30.436Z,26.13
2019-01-16T08:04:18.319Z,33.77
2019-01-16T08:07:06.353Z,46.10
2019-01-16T08:09:55.126Z,32.77
2019-01-16T08:12:43.128Z,43.47
2019-01-16T08:15:31.380Z,14.97
2019-01-16T08:18:19.413Z,14.43
2019-01-16T08:21:08.208Z,13.47
2019-01-16T08:23:44.434Z,14.93
2019-01-16T08:26:32.405Z,8.63
2019-01-16T08:29:20.379Z,14.43
2019-01-16T08:32:08.255Z,15.10
2019-01-16T08:34:57.094Z,10.77
2019-01-16T08:37:45.071Z,19.27
2019-01-16T08:40:33.155Z,9.30
2019-01-16T08:43:21.148Z,7.60
2019-01-16T08:46:09.505Z,12.13
2019-01-16T08:48:57.485Z,12.17
2019-01-16T08:51:45.468Z,12.30
2019-01-16T08:54:34.244Z,19.83
2019-01-16T08:57:14.152Z,18.17
2019-01-16T09:00:02.127Z,9.23
2019-01-16T09:02:50.116Z,5.97
2019-01-16T09:05:38.095Z,6.77
2019-01-16T09:08:26.088Z,11.40
2019-01-16T09:11:09.212Z,6.87
2019-01-16T09:13:57.985Z,5.33
2019-01-16T09:16:45.977Z,7.50
2019-01-16T09:19:33.863Z,9.87
2019-01-16T09:22:21.948Z,4.60
2019-01-16T09:25:09.928Z,5.53
2019-01-16T09:27:57.927Z,6.63
2019-01-16T09:30:45.799Z,7.13
2019-01-16T09:33:34.586Z,4.77
2019-01-16T09:36:22.674Z,3.40
2019-01-16T09:42:03.437Z,5.07
2019-01-16T09:44:51.480Z,2.73
2019-01-16T09:47:40.346Z,5.83
2019-01-16T09:50:29.749Z,3.83
2019-01-16T09:53:26.566Z,6.00
2019-01-16T09:56:14.445Z,4.37
2019-01-16T09:59:02.331Z,5.03
2019-01-16T10:01:50.419Z,4.63
2019-01-16T10:04:32.684Z,6.03
2019-01-16T10:07:20.663Z,5.27
2019-01-16T10:10:08.583Z,3.97
2019-01-16T10:12:56.564Z,4.73
2019-01-16T10:15:44.545Z,8.13
2019-01-16T10:18:32.536Z,3.57
2019-01-16T10:21:20.546Z,4.87
2019-01-16T10:24:08.655Z,3.03
2019-01-16T10:26:47.825Z,3.97
2019-01-16T10:29:36.622Z,6.03
2019-01-16T10:32:24.817Z,4.50
2019-01-16T10:35:12.806Z,3.10
2019-01-16T10:38:00.834Z,3.70
2019-01-16T10:40:48.824Z,5.83
2019-01-16T10:43:40.276Z,4.43
2019-01-16T10:46:29.147Z,3.17
2019-01-16T10:49:10.668Z,5.70
2019-01-16T10:51:59.871Z,5.33
2019-01-16T10:54:45.471Z,4.60
2019-01-16T10:57:34.263Z,3.80
2019-01-16T11:03:24.607Z,4.70
2019-01-16T11:06:13.385Z,6.13
2019-01-16T11:11:53.460Z,7.97
2019-01-16T11:14:41.542Z,9.23
2019-01-16T11:17:35.340Z,8.20
2019-01-16T11:23:27.434Z,6.17
2019-01-16T11:26:15.458Z,6.77
2019-01-16T11:29:04.243Z,4.77
2019-01-16T11:31:52.232Z,8.83
2019-01-16T11:34:40.128Z,4.10
2019-01-16T11:37:28.205Z,5.87
2019-01-16T11:43:18.957Z,4.73
2019-01-16T11:46:07.016Z,3.27
2019-01-16T11:48:55.811Z,8.37
2019-01-16T11:51:43.905Z,5.47
2019-01-16T11:54:31.907Z,5.90
2019-01-16T11:57:19.996Z,4.87
2019-01-16T12:00:07.973Z,4.10
2019-01-16T12:02:56.046Z,5.27
2019-01-16T12:05:44.035Z,4.23
2019-01-16T12:08:33.230Z,4.80
2019-01-16T12:11:21.117Z,4.37
2019-01-16T12:14:09.322Z,7.47
2019-01-16T12:16:57.363Z,5.60
2019-01-16T12:19:46.138Z,5.57
2019-01-16T12:22:34.220Z,7.23
2019-01-16T12:25:23.026Z,8.67
2019-01-16T12:28:11.113Z,6.33
2019-01-16T12:30:59.203Z,4.67
2019-01-16T12:33:47.271Z,7.67
2019-01-16T12:36:35.257Z,5.67
2019-01-16T12:39:32.390Z,11.70
2019-01-16T12:42:20.381Z,64.47
2019-01-16T12:45:10.682Z,7.63
2019-01-16T12:47:58.803Z,26.47
2019-01-16T12:50:46.908Z,12.60
2019-01-16T12:53:35.287Z,5.63
2019-01-16T12:59:29.228Z,10.07
2019-01-16T13:02:18.021Z,15.27
2019-01-16T13:05:06.103Z,5.93
2019-01-16T13:07:54.388Z,7.23
2019-01-16T13:10:42.401Z,10.40
2019-01-16T13:13:31.239Z,12.10
2019-01-16T13:16:20.088Z,13.43
2019-01-16T13:19:08.088Z,15.87
2019-01-16T13:21:56.047Z,9.47
2019-01-16T13:24:44.835Z,8.73
2019-01-16T13:27:33.631Z,7.33
2019-01-16T13:30:21.727Z,8.47
2019-01-16T13:33:10.010Z,10.37
2019-01-16T13:35:57.891Z,6.57
2019-01-16T13:38:46.376Z,6.33
2019-01-16T13:41:35.167Z,8.77
2019-01-16T13:44:24.015Z,9.57
2019-01-16T13:47:08.118Z,8.30
2019-01-16T13:49:56.927Z,6.80
2019-01-16T13:52:48.605Z,11.03
2019-01-16T13:55:37.407Z,7.07
2019-01-16T13:58:25.409Z,7.23
2019-01-16T14:00:58.944Z,20.40
2019-01-16T14:03:47.736Z,8.57
2019-01-16T14:06:36.537Z,8.53
2019-01-16T14:12:29.909Z,12.07
2019-01-16T14:15:18.804Z,8.30
2019-01-16T14:18:07.591Z,5.87
2019-01-16T14:20:56.393Z,5.10
2019-01-16T14:23:44.443Z,8.10
2019-01-16T14:26:33.225Z,7.80
2019-01-16T14:29:21.605Z,6.47
2019-01-16T14:32:09.889Z,5.83
2019-01-16T14:34:58.684Z,6.43
2019-01-16T14:37:47.477Z,7.27
2019-01-16T14:40:36.329Z,5.60
2019-01-16T14:43:26.596Z,7.70
2019-01-16T14:46:30.801Z,8.47
2019-01-16T14:49:19.594Z,8.67
2019-01-16T14:54:52.060Z,6.57
2019-01-16T14:57:40.839Z,8.03
2019-01-16T15:00:31.049Z,5.97
2019-01-16T15:03:19.893Z,7.40
2019-01-16T15:06:08.279Z,7.80
2019-01-16T15:08:51.065Z,8.93
2019-01-16T15:11:39.866Z,9.30
2019-01-16T15:14:28.657Z,6.50
2019-01-16T15:17:09.548Z,9.00
2019-01-16T15:20:11.517Z,5.70
2019-01-16T15:22:57.106Z,9.37
2019-01-16T15:25:35.837Z,6.70
2019-01-16T15:28:26.766Z,10.93
2019-01-16T15:31:16.345Z,7.50
2019-01-16T15:34:04.642Z,8.43
2019-01-16T15:36:52.724Z,14.97
2019-01-16T15:39:41.513Z,15.57
2019-01-16T15:42:30.324Z,22.33
2019-01-16T15:45:19.283Z,13.80
2019-01-16T15:48:07.781Z,14.47
2019-01-16T15:50:55.770Z,14.77
2019-01-16T15:53:44.555Z,13.63
2019-01-16T15:56:33.349Z,14.90
2019-01-16T15:59:21.532Z,13.73
2019-01-16T16:02:10.407Z,17.33
2019-01-16T16:04:59.204Z,16.87
2019-01-16T16:07:42.804Z,14.83
2019-01-16T16:10:25.050Z,13.60
2019-01-16T16:13:13.879Z,15.10
2019-01-16T16:16:02.731Z,16.30
2019-01-16T16:18:51.539Z,16.70
2019-01-16T16:21:40.327Z,12.07
2019-01-16T16:24:29.849Z,12.43
2019-01-16T16:27:18.200Z,15.53
2019-01-16T16:30:06.998Z,14.70
2019-01-16T16:32:55.815Z,17.50
2019-01-16T16:35:44.660Z,14.07
2019-01-16T16:38:33.447Z,12.00
2019-01-16T16:41:21.552Z,12.97
2019-01-16T16:44:10.344Z,13.90
2019-01-16T16:46:58.357Z,16.20
2019-01-16T16:49:47.144Z,14.13
2019-01-16T16:52:35.199Z,15.50
2019-01-16T16:55:24.390Z,12.43
2019-01-16T16:58:13.187Z,17.23
2019-01-16T17:01:01.212Z,12.50
2019-01-16T17:03:49.987Z,11.73
2019-01-16T17:06:30.529Z,11.67
2019-01-16T17:09:19.315Z,12.63
2019-01-16T17:12:07.397Z,13.70
2019-01-16T17:14:55.381Z,12.63
2019-01-16T17:17:44.193Z,10.43
2019-01-16T17:20:32.576Z,12.40
2019-01-16T17:23:21.364Z,11.90
2019-01-16T17:26:10.255Z,14.07
2019-01-16T17:28:58.537Z,9.67
2019-01-16T17:31:46.530Z,8.33
2019-01-16T17:34:34.581Z,8.37
2019-01-16T17:37:23.565Z,9.27
2019-01-16T17:40:11.557Z,6.63
2019-01-16T17:42:51.748Z,9.63
2019-01-16T17:45:40.639Z,9.90
2019-01-16T17:48:28.910Z,11.80
2019-01-16T17:51:17.393Z,9.90
2019-01-16T17:54:05.382Z,13.83
2019-01-16T17:56:53.382Z,11.87
2019-01-16T17:59:41.567Z,10.60
2019-01-16T18:02:30.357Z,13.13
2019-01-16T18:05:19.143Z,10.20
2019-01-16T18:07:57.221Z,8.37
2019-01-16T18:10:45.302Z,10.00
2019-01-16T18:13:33.388Z,10.43
2019-01-16T18:16:14.852Z,7.73
2019-01-16T18:18:51.243Z,8.20
2019-01-16T18:21:31.430Z,6.63
2019-01-16T18:24:20.228Z,7.43
2019-01-16T18:27:09.029Z,6.50
2019-01-16T18:29:57.801Z,9.00
2019-01-16T18:32:46.586Z,8.70
2019-01-16T18:35:35.480Z,9.40
2019-01-16T18:38:24.274Z,7.30
2019-01-16T18:41:12.277Z,8.87
2019-01-16T18:44:00.454Z,8.53
2019-01-16T18:46:48.446Z,8.53
2019-01-16T18:49:37.274Z,7.17
2019-01-16T18:52:25.379Z,7.03
2019-01-16T18:55:13.362Z,9.07
2019-01-16T18:58:01.318Z,9.03
2019-01-16T19:00:49.497Z,9.13
2019-01-16T19:03:37.642Z,9.80
2019-01-16T19:06:25.699Z,6.03
2019-01-16T19:09:08.488Z,6.47
2019-01-16T19:11:57.285Z,7.90
2019-01-16T19:14:46.067Z,5.77
2019-01-16T19:17:34.059Z,5.77
2019-01-16T19:20:23.574Z,7.77
2019-01-16T19:23:03.833Z,4.97
2019-01-16T19:25:52.633Z,6.00
2019-01-16T19:28:40.667Z,6.20
2019-01-16T19:31:29.473Z,7.23
2019-01-16T19:34:18.254Z,5.83
2019-01-16T19:37:06.248Z,5.83
2019-01-16T19:39:46.983Z,5.93
2019-01-16T19:42:35.766Z,5.80
2019-01-16T19:45:24.295Z,5.27
2019-01-16T19:48:12.291Z,6.67
2019-01-16T19:51:00.272Z,7.93
2019-01-16T19:56:42.136Z,7.43
2019-01-16T19:59:30.126Z,7.60
2019-01-16T20:02:18.930Z,5.93
2019-01-16T20:05:07.829Z,6.07
2019-01-16T20:07:48.683Z,6.63
2019-01-16T20:10:36.763Z,5.00
2019-01-16T20:13:24.792Z,6.73
2019-01-16T20:16:12.874Z,7.40
2019-01-16T20:18:50.885Z,7.87
2019-01-16T20:21:39.658Z,7.27
2019-01-16T20:24:27.722Z,6.97
2019-01-16T20:27:16.601Z,8.07
2019-01-16T20:30:05.085Z,6.17
2019-01-16T20:32:53.866Z,8.33
2019-01-16T20:35:41.848Z,6.73
2019-01-16T20:38:30.015Z,10.23
2019-01-16T20:41:17.247Z,9.03
2019-01-16T20:44:05.134Z,10.50
2019-01-16T20:46:53.403Z,10.30
2019-01-16T20:49:42.212Z,12.73
2019-01-16T20:52:30.183Z,12.43
2019-01-16T20:55:18.219Z,17.03
2019-01-16T20:58:06.194Z,17.87
2019-01-16T21:00:54.168Z,20.37
2019-01-16T21:03:42.940Z,18.27
2019-01-16T21:06:31.731Z,16.43
2019-01-16T21:09:19.693Z,22.93
2019-01-16T21:12:07.765Z,29.83
2019-01-16T21:14:56.816Z,32.60
2019-01-16T21:17:45.576Z,30.23
2019-01-16T21:20:33.765Z,36.67
2019-01-16T21:23:23.887Z,32.33
2019-01-16T21:26:03.917Z,32.80
2019-01-16T21:28:52.050Z,41.50
2019-01-16T21:31:40.088Z,32.83
2019-01-16T21:34:28.854Z,37.50
2019-01-16T21:37:16.831Z,36.57
2019-01-16T21:40:19.753Z,34.10
2019-01-16T21:43:08.548Z,38.33
2019-01-16T21:45:56.505Z,31.93
2019-01-16T21:48:45.290Z,27.80
2019-01-16T21:51:33.371Z,21.87
2019-01-16T21:54:21.452Z,20.07
2019-01-16T21:57:10.232Z,22.73
2019-01-16T21:59:55.410Z,30.07
2019-01-16T22:02:43.393Z,28.27
2019-01-16T22:08:14.126Z,35.40
2019-01-16T22:11:02.859Z,39.90
2019-01-16T22:13:50.839Z,30.87
2019-01-16T22:16:40.276Z,28.50
2019-01-16T22:19:28.405Z,27.33
2019-01-16T22:22:05.616Z,24.03
2019-01-16T22:24:53.701Z,25.27
2019-01-16T22:27:41.730Z,20.13
2019-01-16T22:30:32.740Z,17.33
2019-01-16T22:33:20.730Z,15.73
2019-01-16T22:36:08.808Z,15.47
2019-01-16T22:38:56.687Z,13.87
2019-01-16T22:41:44.670Z,13.63
2019-01-16T22:44:33.458Z,13.43
2019-01-16T22:47:21.594Z,16.00
2019-01-16T22:50:09.586Z,15.93
2019-01-16T22:52:57.672Z,16.53
2019-01-16T22:55:45.652Z,16.80
2019-01-16T22:58:31.943Z,19.37
2019-01-16T23:01:22.110Z,15.37
2019-01-16T23:04:10.890Z,15.70
2019-01-16T23:06:58.965Z,18.67
2019-01-16T23:09:46.942Z,23.27
2019-01-16T23:12:34.827Z,30.57
2019-01-16T23:18:25.717Z,36.43
2019-01-16T23:21:13.704Z,37.50
2019-01-16T23:24:01.880Z,48.60
2019-01-16T23:26:49.962Z,45.43
2019-01-16T23:29:37.939Z,48.57
2019-01-16T23:32:26.122Z,46.53
2019-01-16T23:35:14.065Z,41.77
2019-01-16T23:38:02.847Z,44.73
2019-01-16T23:40:50.833Z,44.10
2019-01-16T23:43:38.804Z,37.10
2019-01-16T23:46:26.846Z,44.63
2019-01-16T23:49:15.643Z,38.47
2019-01-16T23:51:59.626Z,40.33
2019-01-16T23:54:48.408Z,41.80
2019-01-16T23:57:36.395Z,42.47
